createdAt,value
2022-12-18T00:00:08.080Z,101833.47
2022-12-18T00:03:16.386Z,101838.38
2022-12-18T00:06:20.200Z,101843.25
2022-12-18T00:09:24.713Z,101840.94
2022-12-18T00:12:29.879Z,101849.72
2022-12-18T00:15:35.696Z,101851.81
2022-12-18T00:18:38.774Z,101875.00
2022-12-18T00:21:41.893Z,101872.56
2022-12-18T00:24:44.801Z,101883.50
2022-12-18T00:27:47.336Z,101898.19
2022-12-18T00:30:52.390Z,101907.84
2022-12-18T00:33:56.703Z,101913.78
2022-12-18T00:36:59.368Z,101914.25
2022-12-18T00:40:02.298Z,101917.59
2022-12-18T00:43:05.067Z,101920.56
2022-12-18T00:46:07.645Z,101911.34
2022-12-18T00:49:15.113Z,101919.34
2022-12-18T00:52:17.641Z,101920.72
2022-12-18T00:55:20.487Z,101917.16
2022-12-18T00:58:23.244Z,101919.75
2022-12-18T01:01:26.073Z,101924.19
2022-12-18T01:04:32.963Z,101926.72
2022-12-18T01:07:36.325Z,101939.34
2022-12-18T01:10:42.038Z,101944.19
2022-12-18T01:13:45.290Z,101948.31
2022-12-18T01:16:47.778Z,101952.44
2022-12-18T01:19:50.629Z,101957.44
2022-12-18T01:22:53.091Z,101950.38
2022-12-18T01:25:56.998Z,101953.88
2022-12-18T01:28:59.515Z,101973.22
2022-12-18T01:32:02.368Z,101957.41
2022-12-18T01:35:06.579Z,101954.53
2022-12-18T01:38:09.604Z,101958.47
2022-12-18T01:41:12.886Z,101967.41
2022-12-18T01:44:55.063Z,101962.03
2022-12-18T01:48:02.417Z,101975.53
2022-12-18T01:51:05.791Z,101979.41
2022-12-18T01:54:08.571Z,101980.34
2022-12-18T01:57:11.520Z,101980.47
2022-12-18T02:00:20.207Z,101976.09
2022-12-18T02:03:22.992Z,101989.37
2022-12-18T02:06:40.965Z,101991.31
2022-12-18T02:10:12.254Z,101994.00
2022-12-18T02:13:31.008Z,101992.00
2022-12-18T02:16:33.818Z,101999.97
2022-12-18T02:19:45.778Z,102007.88
2022-12-18T02:23:11.941Z,102014.53
2022-12-18T02:26:37.311Z,102012.53
2022-12-18T02:29:57.631Z,102006.53
2022-12-18T02:33:04.954Z,102014.13
2022-12-18T02:36:11.764Z,102026.56
2022-12-18T02:39:16.626Z,102028.78
2022-12-18T02:42:20.770Z,102031.06
2022-12-18T02:45:24.000Z,102032.28
2022-12-18T02:48:33.914Z,102033.63
2022-12-18T02:51:47.618Z,102037.72
2022-12-18T02:55:08.190Z,102041.00
2022-12-18T02:58:20.185Z,102052.34
2022-12-18T03:01:37.013Z,102047.66
2022-12-18T03:04:50.668Z,102056.09
2022-12-18T03:07:59.347Z,102057.69
2022-12-18T03:11:07.160Z,102068.47
2022-12-18T03:14:13.902Z,102073.03
2022-12-18T03:17:21.660Z,102061.50
2022-12-18T03:20:26.735Z,102066.16
2022-12-18T03:23:35.553Z,102065.75
2022-12-18T03:26:44.809Z,102074.50
2022-12-18T03:30:08.554Z,102084.37
2022-12-18T03:33:21.334Z,102088.44
2022-12-18T03:36:24.846Z,102095.00
2022-12-18T03:39:28.249Z,102096.72
2022-12-18T03:42:52.232Z,102098.13
2022-12-18T03:46:04.009Z,102105.63
2022-12-18T03:49:15.023Z,102121.44
2022-12-18T03:52:58.518Z,102118.03
2022-12-18T03:56:03.093Z,102115.25
2022-12-18T03:59:09.106Z,102110.75
2022-12-18T04:02:14.699Z,102114.00
2022-12-18T04:05:18.683Z,102114.66
2022-12-18T04:08:23.621Z,102118.19
2022-12-18T04:11:27.403Z,102125.19
2022-12-18T04:14:29.896Z,102131.66
2022-12-18T04:17:32.839Z,102133.12
2022-12-18T04:20:35.759Z,102133.78
2022-12-18T04:23:39.594Z,102128.44
2022-12-18T04:26:42.829Z,102127.78
2022-12-18T04:29:46.075Z,102128.25
2022-12-18T04:32:52.161Z,102139.00
2022-12-18T04:35:55.779Z,102135.09
2022-12-18T04:38:59.003Z,102142.63
2022-12-18T04:42:01.803Z,102145.97
2022-12-18T04:45:04.769Z,102149.00
2022-12-18T04:48:07.749Z,102156.25
2022-12-18T04:51:10.167Z,102155.25
2022-12-18T04:54:12.838Z,102173.88
2022-12-18T04:57:15.326Z,102172.16
2022-12-18T05:00:18.258Z,102172.81
2022-12-18T05:03:20.741Z,102173.59
2022-12-18T05:06:23.607Z,102175.13
2022-12-18T05:09:26.126Z,102178.25
2022-12-18T05:12:28.905Z,102181.44
2022-12-18T05:15:32.541Z,102191.91
2022-12-18T05:18:35.975Z,102195.78
2022-12-18T05:21:38.431Z,102187.94
2022-12-18T05:24:41.135Z,102188.69
2022-12-18T05:27:43.624Z,102187.88
2022-12-18T05:30:54.772Z,102203.13
2022-12-18T05:33:57.283Z,102204.88
2022-12-18T05:37:00.317Z,102198.34
2022-12-18T05:40:04.838Z,102209.84
2022-12-18T05:43:07.653Z,102218.19
2022-12-18T05:46:16.648Z,102214.13
2022-12-18T05:49:19.574Z,102221.31
2022-12-18T05:52:22.232Z,102220.22
2022-12-18T05:55:24.962Z,102229.19
2022-12-18T05:58:27.433Z,102232.09
2022-12-18T06:01:30.358Z,102247.28
2022-12-18T06:04:33.886Z,102250.66
2022-12-18T06:07:38.218Z,102244.75
2022-12-18T06:10:41.648Z,102249.00
2022-12-18T06:13:44.097Z,102253.06
2022-12-18T06:16:46.813Z,102245.38
2022-12-18T06:19:49.337Z,102244.69
2022-12-18T06:22:52.191Z,102258.03
2022-12-18T06:25:54.838Z,102260.56
2022-12-18T06:28:57.913Z,102265.22
2022-12-18T06:32:01.128Z,102263.78
2022-12-18T06:35:04.863Z,102272.62
2022-12-18T06:38:07.971Z,102272.44
2022-12-18T06:41:13.808Z,102281.63
2022-12-18T06:44:16.568Z,102280.53
2022-12-18T06:47:19.754Z,102294.00
2022-12-18T06:50:23.527Z,102295.91
2022-12-18T06:53:26.562Z,102295.09
2022-12-18T06:56:29.161Z,102301.09
2022-12-18T06:59:31.864Z,102315.72
2022-12-18T07:02:35.086Z,102315.00
2022-12-18T07:05:41.894Z,102321.97
2022-12-18T07:08:45.232Z,102327.31
2022-12-18T07:11:48.278Z,102327.41
2022-12-18T07:14:50.696Z,102330.94
2022-12-18T07:17:53.539Z,102340.47
2022-12-18T07:20:55.995Z,102338.22
2022-12-18T07:23:58.981Z,102343.22
2022-12-18T07:27:01.892Z,102349.53
2022-12-18T07:30:05.365Z,102356.50
2022-12-18T07:33:08.146Z,102358.53
2022-12-18T07:36:11.882Z,102368.22
2022-12-18T07:39:14.617Z,102375.41
2022-12-18T07:42:32.778Z,102380.31
2022-12-18T07:45:35.280Z,102381.63
2022-12-18T07:48:38.140Z,102386.19
2022-12-18T07:51:40.578Z,102393.13
2022-12-18T07:54:43.572Z,102397.03
2022-12-18T07:57:51.857Z,102402.28
2022-12-18T08:01:06.108Z,102405.12
2022-12-18T08:04:09.356Z,102412.94
2022-12-18T08:07:11.857Z,102416.69
2022-12-18T08:10:14.666Z,102421.25
2022-12-18T08:13:17.084Z,102417.50
2022-12-18T08:16:20.897Z,102428.91
2022-12-18T08:19:23.623Z,102431.16
2022-12-18T08:22:26.389Z,102432.31
2022-12-18T08:25:28.826Z,102431.16
2022-12-18T08:28:31.669Z,102435.50
2022-12-18T08:31:34.299Z,102443.50
2022-12-18T08:34:37.345Z,102439.63
2022-12-18T08:37:39.728Z,102445.97
2022-12-18T08:40:42.985Z,102447.25
2022-12-18T08:44:04.414Z,102446.38
2022-12-18T08:47:08.424Z,102449.63
2022-12-18T08:50:12.135Z,102439.28
2022-12-18T08:53:15.306Z,102443.78
2022-12-18T08:56:17.986Z,102442.63
2022-12-18T08:59:21.310Z,102452.69
2022-12-18T09:02:24.253Z,102456.97
2022-12-18T09:05:27.051Z,102461.09
2022-12-18T09:08:30.446Z,102466.50
2022-12-18T09:11:34.272Z,102473.75
2022-12-18T09:14:37.008Z,102480.28
2022-12-18T09:17:39.834Z,102483.13
2022-12-18T09:20:42.891Z,102481.03
2022-12-18T09:23:53.632Z,102479.47
2022-12-18T09:26:57.775Z,102476.75
2022-12-18T09:30:00.996Z,102470.22
2022-12-18T09:33:03.798Z,102476.63
2022-12-18T09:36:08.779Z,102474.22
2022-12-18T09:39:11.312Z,102478.56
2022-12-18T09:42:21.410Z,102471.56
2022-12-18T09:45:25.105Z,102470.16
2022-12-18T09:48:41.971Z,102464.34
2022-12-18T09:51:53.504Z,102467.09
2022-12-18T09:55:00.297Z,102471.00
2022-12-18T09:58:11.224Z,102471.22
2022-12-18T10:01:23.823Z,102459.63
2022-12-18T10:04:31.888Z,102469.38
2022-12-18T10:08:17.434Z,102465.28
2022-12-18T10:11:40.972Z,102463.22
2022-12-18T10:14:55.738Z,102460.81
2022-12-18T10:18:05.559Z,102461.50
2022-12-18T10:21:16.430Z,102465.56
2022-12-18T10:24:33.594Z,102460.75
2022-12-18T10:27:36.212Z,102465.25
2022-12-18T10:30:41.098Z,102462.69
2022-12-18T10:33:44.387Z,102456.78
2022-12-18T10:36:48.751Z,102451.69
2022-12-18T10:40:09.495Z,102455.41
2022-12-18T10:43:15.551Z,102447.13
2022-12-18T10:46:20.869Z,102455.72
2022-12-18T10:49:27.799Z,102461.63
2022-12-18T10:52:31.025Z,102462.62
2022-12-18T10:55:38.704Z,102452.88
2022-12-18T10:58:41.825Z,102453.75
2022-12-18T11:01:58.489Z,102450.37
2022-12-18T11:05:01.950Z,102454.00
2022-12-18T11:08:04.997Z,102453.22
2022-12-18T11:11:31.590Z,102441.38
2022-12-18T11:14:47.141Z,102440.47
2022-12-18T11:17:51.960Z,102439.09
2022-12-18T11:21:00.321Z,102437.69
2022-12-18T11:24:03.069Z,102442.25
2022-12-18T11:27:16.429Z,102442.41
2022-12-18T11:30:23.810Z,102444.88
2022-12-18T11:33:26.991Z,102442.50
2022-12-18T11:36:34.831Z,102435.88
2022-12-18T11:39:42.294Z,102437.06
2022-12-18T11:42:55.907Z,102423.25
2022-12-18T11:46:08.481Z,102419.97
2022-12-18T11:49:18.245Z,102432.25
2022-12-18T11:52:29.274Z,102431.59
2022-12-18T11:55:45.776Z,102424.44
2022-12-18T11:58:59.526Z,102421.91
2022-12-18T12:02:14.319Z,102422.03
2022-12-18T12:05:37.834Z,102415.34
2022-12-18T12:09:02.325Z,102412.75
2022-12-18T12:12:23.079Z,102412.84
2022-12-18T12:15:36.955Z,102408.69
2022-12-18T12:18:51.183Z,102407.00
2022-12-18T12:22:05.029Z,102403.53
2022-12-18T12:25:34.094Z,102405.06
2022-12-18T12:28:43.007Z,102408.25
2022-12-18T12:31:54.087Z,102404.19
2022-12-18T12:35:27.886Z,102405.28
2022-12-18T12:38:51.617Z,102410.41
2022-12-18T12:42:14.942Z,102413.13
2022-12-18T12:45:27.101Z,102410.38
2022-12-18T12:49:00.697Z,102414.53
2022-12-18T12:52:13.326Z,102421.94
2022-12-18T12:55:22.972Z,102422.94
2022-12-18T12:58:42.704Z,102433.66
2022-12-18T13:02:03.688Z,102442.00
2022-12-18T13:05:39.678Z,102436.94
2022-12-18T13:08:56.023Z,102440.25
2022-12-18T13:12:34.865Z,102448.13
2022-12-18T13:15:40.855Z,102451.06
2022-12-18T13:18:53.061Z,102445.50
2022-12-18T13:21:57.611Z,102442.53
2022-12-18T13:25:00.891Z,102448.47
2022-12-18T13:28:10.025Z,102454.56
2022-12-18T13:31:13.650Z,102459.69
2022-12-18T13:34:27.496Z,102451.47
2022-12-18T13:37:33.688Z,102461.47
2022-12-18T13:40:48.458Z,102461.22
2022-12-18T13:43:58.797Z,102468.41
2022-12-18T13:47:03.570Z,102467.97
2022-12-18T13:50:32.282Z,102470.19
2022-12-18T13:53:45.261Z,102468.91
2022-12-18T13:56:49.465Z,102471.06
2022-12-18T13:59:52.560Z,102471.72
2022-12-18T14:02:56.662Z,102478.16
2022-12-18T14:06:07.285Z,102473.50
2022-12-18T14:09:20.304Z,102472.34
2022-12-18T14:14:37.584Z,102477.91
2022-12-18T14:17:40.793Z,102477.34
2022-12-18T14:20:52.597Z,102481.16
2022-12-18T14:24:17.554Z,102483.22
2022-12-18T14:27:26.028Z,102469.25
2022-12-18T14:30:36.207Z,102476.47
2022-12-18T14:33:39.509Z,102475.91
2022-12-18T14:36:53.531Z,102486.72
2022-12-18T14:40:08.667Z,102485.72
2022-12-18T14:43:13.859Z,102487.13
2022-12-18T14:46:35.431Z,102492.78
2022-12-18T14:49:43.242Z,102502.88
2022-12-18T14:52:45.898Z,102508.63
2022-12-18T14:55:49.529Z,102519.00
2022-12-18T14:58:59.059Z,102529.97
2022-12-18T15:02:23.205Z,102530.72
2022-12-18T15:05:31.039Z,102521.37
2022-12-18T15:08:38.381Z,102528.28
2022-12-18T15:11:40.952Z,102538.72
2022-12-18T15:14:43.797Z,102542.28
2022-12-18T15:17:46.290Z,102541.56
2022-12-18T15:20:56.166Z,102546.13
2022-12-18T15:23:58.744Z,102555.03
2022-12-18T15:27:02.188Z,102549.53
2022-12-18T15:30:24.903Z,102560.19
2022-12-18T15:33:32.362Z,102559.84
2022-12-18T15:36:37.679Z,102564.53
2022-12-18T15:39:40.453Z,102570.16
2022-12-18T15:43:02.750Z,102573.25
2022-12-18T15:46:11.991Z,102581.75
2022-12-18T15:49:14.530Z,102578.78
2022-12-18T15:52:26.970Z,102593.94
2022-12-18T15:55:48.460Z,102595.19
2022-12-18T15:58:51.294Z,102605.00
2022-12-18T16:01:54.419Z,102603.88
2022-12-18T16:04:57.357Z,102602.94
2022-12-18T16:07:59.986Z,102610.56
2022-12-18T16:11:03.446Z,102610.38
2022-12-18T16:14:22.407Z,102610.38
2022-12-18T16:17:25.324Z,102612.72
2022-12-18T16:20:27.814Z,102618.47
2022-12-18T16:23:30.535Z,102619.72
2022-12-18T16:26:33.104Z,102623.66
2022-12-18T16:29:35.896Z,102627.53
2022-12-18T16:32:38.472Z,102628.84
2022-12-18T16:35:41.526Z,102630.41
2022-12-18T16:38:45.147Z,102634.72
2022-12-18T16:41:48.283Z,102630.03
2022-12-18T16:44:51.040Z,102640.72
2022-12-18T16:47:53.780Z,102637.22
2022-12-18T16:51:05.333Z,102642.25
2022-12-18T16:54:11.002Z,102650.50
2022-12-18T16:57:17.711Z,102650.28
2022-12-18T17:00:20.603Z,102648.41
2022-12-18T17:03:24.905Z,102648.62
2022-12-18T17:06:31.562Z,102647.75
2022-12-18T17:09:34.278Z,102635.72
2022-12-18T17:12:37.370Z,102624.00
2022-12-18T17:15:40.004Z,102628.09
2022-12-18T17:18:43.310Z,102628.50
2022-12-18T17:21:48.599Z,102634.63
2022-12-18T17:24:51.446Z,102630.94
2022-12-18T17:27:54.000Z,102626.34
2022-12-18T17:30:57.411Z,102636.94
2022-12-18T17:34:02.018Z,102642.25
2022-12-18T17:37:04.832Z,102641.88
2022-12-18T17:40:08.206Z,102639.84
2022-12-18T17:43:11.940Z,102643.97
2022-12-18T17:46:15.212Z,102652.91
2022-12-18T17:49:18.130Z,102652.50
2022-12-18T17:52:20.627Z,102655.91
2022-12-18T17:55:23.586Z,102653.81
2022-12-18T17:58:26.301Z,102638.97
2022-12-18T18:01:29.442Z,102647.53
2022-12-18T18:04:32.345Z,102646.38
2022-12-18T18:07:35.067Z,102648.59
2022-12-18T18:10:39.542Z,102644.19
2022-12-18T18:14:00.876Z,102649.97
2022-12-18T18:17:04.890Z,102649.84
2022-12-18T18:20:08.179Z,102660.31
2022-12-18T18:23:11.469Z,102659.12
2022-12-18T18:26:14.221Z,102653.31
2022-12-18T18:29:20.970Z,102654.00
2022-12-18T18:32:23.629Z,102657.97
2022-12-18T18:35:52.737Z,102662.75
2022-12-18T18:38:49.287Z,102664.34
2022-12-18T18:41:52.195Z,102672.56
2022-12-18T18:44:54.685Z,102673.31
2022-12-18T18:47:59.083Z,102674.19
2022-12-18T18:51:06.771Z,102682.56
2022-12-18T18:54:10.069Z,102685.03
2022-12-18T18:57:25.206Z,102689.41
2022-12-18T19:00:30.450Z,102697.78
2022-12-18T19:03:33.633Z,102684.78
2022-12-18T19:06:36.507Z,102688.91
2022-12-18T19:09:39.912Z,102689.22
2022-12-18T19:13:03.025Z,102700.31
2022-12-18T19:16:08.639Z,102701.91
2022-12-18T19:19:13.489Z,102707.13
2022-12-18T19:22:16.198Z,102706.66
2022-12-18T19:25:19.065Z,102711.53
2022-12-18T19:28:26.265Z,102722.31
2022-12-18T19:31:35.144Z,102718.81
2022-12-18T19:34:38.625Z,102729.03
2022-12-18T19:37:41.683Z,102734.66
2022-12-18T19:40:46.076Z,102734.66
2022-12-18T19:43:49.523Z,102721.69
2022-12-18T19:46:51.985Z,102732.78
2022-12-18T19:49:54.888Z,102733.25
2022-12-18T19:52:57.899Z,102737.19
2022-12-18T19:56:09.342Z,102737.81
2022-12-18T19:59:11.937Z,102747.44
2022-12-18T20:02:14.837Z,102752.37
2022-12-18T20:05:22.197Z,102743.09
2022-12-18T20:08:24.744Z,102750.44
2022-12-18T20:11:31.571Z,102751.06
2022-12-18T20:14:34.152Z,102747.66
2022-12-18T20:17:37.041Z,102756.56
2022-12-18T20:20:39.936Z,102759.28
2022-12-18T20:23:43.604Z,102764.09
2022-12-18T20:26:46.472Z,102772.09
2022-12-18T20:29:49.451Z,102781.12
2022-12-18T20:32:51.954Z,102779.47
2022-12-18T20:35:59.842Z,102771.69
2022-12-18T20:39:04.017Z,102774.25
2022-12-18T20:42:09.294Z,102783.50
2022-12-18T20:45:11.767Z,102773.25
2022-12-18T20:48:14.599Z,102773.38
2022-12-18T20:51:20.206Z,102775.41
2022-12-18T20:54:25.186Z,102783.47
2022-12-18T20:57:27.976Z,102783.03
2022-12-18T21:00:30.786Z,102788.03
2022-12-18T21:03:36.745Z,102788.72
2022-12-18T21:06:39.597Z,102792.91
2022-12-18T21:09:42.655Z,102805.47
2022-12-18T21:13:00.078Z,102805.31
2022-12-18T21:16:07.451Z,102808.63
2022-12-18T21:19:14.624Z,102808.63
2022-12-18T21:22:17.067Z,102806.81
2022-12-18T21:25:20.122Z,102806.91
2022-12-18T21:28:22.584Z,102812.22
2022-12-18T21:31:28.343Z,102809.53
2022-12-18T21:34:32.552Z,102797.78
2022-12-18T21:37:35.570Z,102792.72
2022-12-18T21:40:39.440Z,102796.91
2022-12-18T21:44:00.584Z,102788.63
2022-12-18T21:47:12.312Z,102787.22
2022-12-18T21:50:25.595Z,102778.72
2022-12-18T21:53:28.149Z,102785.31
2022-12-18T21:56:50.397Z,102793.78
2022-12-18T21:59:52.864Z,102791.78
2022-12-18T22:03:17.407Z,102794.31
2022-12-18T22:06:18.425Z,102788.87
2022-12-18T22:09:23.564Z,102789.41
2022-12-18T22:12:36.422Z,102783.72
2022-12-18T22:15:43.188Z,102790.28
2022-12-18T22:18:46.146Z,102794.38
2022-12-18T22:21:49.489Z,102792.03
2022-12-18T22:24:52.298Z,102785.13
2022-12-18T22:28:13.560Z,102792.72
2022-12-18T22:31:16.384Z,102785.66
2022-12-18T22:34:22.802Z,102796.41
2022-12-18T22:37:26.204Z,102790.28
2022-12-18T22:40:29.458Z,102797.53
2022-12-18T22:43:33.435Z,102802.78
2022-12-18T22:46:39.261Z,102803.41
2022-12-18T22:49:42.172Z,102801.75
2022-12-18T22:52:44.681Z,102807.66
2022-12-18T22:55:47.496Z,102808.12
2022-12-18T22:58:51.459Z,102805.16
2022-12-18T23:01:58.721Z,102813.53
2022-12-18T23:05:01.887Z,102810.84
2022-12-18T23:08:05.026Z,102812.56
2022-12-18T23:11:08.302Z,102818.25
2022-12-18T23:14:12.106Z,102816.16
2022-12-18T23:17:14.616Z,102813.19
2022-12-18T23:20:17.398Z,102815.09
2022-12-18T23:23:19.856Z,102820.00
2022-12-18T23:26:24.710Z,102822.87
2022-12-18T23:29:27.893Z,102819.47
2022-12-18T23:32:30.669Z,102818.78
2022-12-18T23:35:35.506Z,102815.91
2022-12-18T23:38:38.498Z,102811.72
2022-12-18T23:41:40.945Z,102820.59
2022-12-18T23:44:43.692Z,102814.41
2022-12-18T23:47:47.030Z,102807.06
2022-12-18T23:50:53.758Z,102805.28
2022-12-18T23:53:59.650Z,102819.87
2022-12-18T23:57:02.705Z,102818.66
